createdAt,value
2018-08-10T00:00:58.362Z,20.00
2018-08-10T00:03:27.519Z,20.00
2018-08-10T00:05:56.687Z,20.00
2018-08-10T00:08:25.844Z,19.90
2018-08-10T00:10:55.016Z,19.90
2018-08-10T00:13:24.182Z,19.90
2018-08-10T00:15:53.346Z,20.00
2018-08-10T00:18:23.826Z,19.90
2018-08-10T00:20:53.014Z,19.90
2018-08-10T00:23:22.252Z,19.80
2018-08-10T00:25:51.748Z,19.80
2018-08-10T00:28:20.983Z,19.80
2018-08-10T00:30:50.224Z,19.80
2018-08-10T00:33:19.361Z,19.80
2018-08-10T00:35:48.541Z,19.80
2018-08-10T00:38:17.682Z,19.90
2018-08-10T00:40:46.811Z,20.00
2018-08-10T00:43:15.945Z,20.00
2018-08-10T00:45:45.067Z,20.10
2018-08-10T00:48:14.268Z,20.10
2018-08-10T00:50:43.363Z,20.10
2018-08-10T00:53:12.482Z,20.10
2018-08-10T00:55:41.622Z,20.10
2018-08-10T00:58:10.852Z,20.00
2018-08-10T01:00:40.215Z,20.00
2018-08-10T01:03:09.370Z,19.90
2018-08-10T01:05:38.493Z,19.90
2018-08-10T01:08:07.635Z,19.80
2018-08-10T01:10:36.940Z,19.80
2018-08-10T01:13:06.383Z,19.80
2018-08-10T01:15:35.572Z,19.80
2018-08-10T01:18:04.823Z,19.80
2018-08-10T01:20:34.099Z,19.80
2018-08-10T01:23:06.155Z,19.70
2018-08-10T01:25:35.549Z,19.70
2018-08-10T01:28:05.410Z,19.70
2018-08-10T01:30:35.633Z,19.70
2018-08-10T01:33:04.793Z,19.70
2018-08-10T01:35:34.032Z,19.70
2018-08-10T01:38:03.599Z,19.70
2018-08-10T01:40:32.735Z,19.70
2018-08-10T01:43:01.896Z,19.70
2018-08-10T01:45:31.019Z,19.80
2018-08-10T01:48:00.207Z,19.80
2018-08-10T01:50:29.388Z,19.90
2018-08-10T01:52:58.578Z,19.90
2018-08-10T01:55:27.722Z,20.00
2018-08-10T01:57:56.973Z,20.00
2018-08-10T02:00:26.170Z,20.00
2018-08-10T02:02:55.324Z,20.00
2018-08-10T02:05:24.525Z,20.00
2018-08-10T02:07:53.720Z,20.10
2018-08-10T02:10:22.919Z,20.10
2018-08-10T02:12:56.568Z,20.10
2018-08-10T02:15:25.763Z,20.10
2018-08-10T02:17:54.947Z,20.10
2018-08-10T02:20:25.377Z,20.00
2018-08-10T02:22:54.537Z,19.90
2018-08-10T02:25:23.987Z,19.90
2018-08-10T02:27:53.241Z,20.00
2018-08-10T02:30:23.533Z,19.90
2018-08-10T02:32:53.053Z,19.80
2018-08-10T02:35:22.307Z,19.80
2018-08-10T02:37:51.461Z,19.80
2018-08-10T02:47:10.435Z,19.60
2018-08-10T02:49:39.681Z,19.50
2018-08-10T02:52:08.929Z,19.50
2018-08-10T02:54:38.049Z,19.50
2018-08-10T02:57:06.884Z,19.50
2018-08-10T02:59:36.053Z,19.60
2018-08-10T03:02:05.247Z,19.60
2018-08-10T03:04:34.433Z,19.70
2018-08-10T03:07:03.601Z,19.50
2018-08-10T03:09:32.777Z,19.50
2018-08-10T03:12:01.888Z,19.50
2018-08-10T03:14:31.025Z,19.50
2018-08-10T03:17:00.244Z,19.50
2018-08-10T03:19:29.378Z,19.50
2018-08-10T03:21:58.513Z,19.50
2018-08-10T03:24:27.712Z,19.50
2018-08-10T03:26:56.966Z,19.40
2018-08-10T03:29:26.094Z,19.40
2018-08-10T03:31:55.230Z,19.40
2018-08-10T03:34:24.453Z,19.30
2018-08-10T03:36:53.693Z,19.30
2018-08-10T03:39:22.911Z,19.20
2018-08-10T03:41:52.165Z,19.20
2018-08-10T03:44:21.320Z,19.10
2018-08-10T03:46:50.500Z,18.90
2018-08-10T03:49:19.673Z,18.80
2018-08-10T03:51:48.851Z,18.90
2018-08-10T03:54:18.015Z,18.90
2018-08-10T03:56:47.153Z,18.80
2018-08-10T03:59:16.319Z,18.80
2018-08-10T04:01:45.498Z,18.80
2018-08-10T04:04:14.652Z,18.80
2018-08-10T04:06:43.789Z,18.90
2018-08-10T04:09:13.540Z,18.80
2018-08-10T04:11:43.446Z,18.90
2018-08-10T04:14:12.634Z,18.80
2018-08-10T04:16:41.961Z,18.70
2018-08-10T04:19:11.146Z,18.80
2018-08-10T04:21:40.325Z,18.80
2018-08-10T04:24:09.463Z,18.70
2018-08-10T04:26:38.680Z,18.70
2018-08-10T04:29:07.846Z,18.80
2018-08-10T04:31:37.002Z,18.70
2018-08-10T04:34:06.420Z,18.80
2018-08-10T04:36:35.743Z,18.60
2018-08-10T04:39:10.021Z,18.70
2018-08-10T04:41:39.276Z,18.60
2018-08-10T04:44:08.406Z,18.60
2018-08-10T04:46:37.684Z,18.50
2018-08-10T04:49:07.313Z,18.40
2018-08-10T04:51:36.561Z,18.20
2018-08-10T04:54:05.778Z,18.30
2018-08-10T04:56:35.041Z,18.30
2018-08-10T04:59:04.360Z,18.30
2018-08-10T05:01:33.494Z,18.30
2018-08-10T05:04:02.679Z,18.30
2018-08-10T05:06:31.818Z,18.20
2018-08-10T05:09:00.950Z,18.30
2018-08-10T05:11:30.079Z,18.20
2018-08-10T05:13:59.240Z,18.20
2018-08-10T05:16:28.402Z,18.20
2018-08-10T05:18:57.533Z,18.10
2018-08-10T05:21:26.717Z,18.10
2018-08-10T05:23:55.901Z,18.10
2018-08-10T05:26:25.005Z,18.20
2018-08-10T05:28:54.168Z,18.20
2018-08-10T05:31:23.307Z,18.20
2018-08-10T05:33:52.510Z,18.20
2018-08-10T05:36:21.636Z,18.20
2018-08-10T05:38:50.742Z,18.10
2018-08-10T05:41:20.019Z,18.10
2018-08-10T05:43:49.179Z,18.00
2018-08-10T05:46:18.356Z,18.00
2018-08-10T05:48:47.524Z,17.90
2018-08-10T05:51:16.708Z,17.90
2018-08-10T05:53:45.917Z,18.00
2018-08-10T05:56:15.209Z,18.00
2018-08-10T05:58:44.412Z,17.90
2018-08-10T06:01:13.568Z,18.00
2018-08-10T06:03:43.412Z,18.10
2018-08-10T06:06:12.571Z,18.10
2018-08-10T06:08:41.702Z,18.00
2018-08-10T06:11:10.975Z,18.10
2018-08-10T06:13:40.162Z,18.20
2018-08-10T06:16:09.310Z,18.20
2018-08-10T06:18:38.541Z,18.00
2018-08-10T06:21:09.269Z,18.00
2018-08-10T06:23:38.529Z,18.00
2018-08-10T06:26:07.729Z,17.80
2018-08-10T06:28:38.593Z,17.80
2018-08-10T06:31:07.843Z,17.90
2018-08-10T06:33:37.016Z,18.10
2018-08-10T06:36:06.596Z,18.20
2018-08-10T06:38:36.410Z,18.20
2018-08-10T06:41:05.537Z,18.20
2018-08-10T06:43:37.314Z,18.20
2018-08-10T06:46:06.878Z,18.20
2018-08-10T06:48:36.148Z,18.20
2018-08-10T06:51:05.299Z,18.20
2018-08-10T06:53:34.374Z,18.20
2018-08-10T06:56:03.696Z,18.20
2018-08-10T06:58:32.919Z,18.10
2018-08-10T07:01:02.288Z,18.10
2018-08-10T07:03:31.526Z,18.10
2018-08-10T07:06:00.707Z,18.20
2018-08-10T07:08:29.909Z,18.20
2018-08-10T07:11:28.938Z,18.30
2018-08-10T07:13:58.151Z,18.40
2018-08-10T07:16:27.321Z,18.40
2018-08-10T07:18:56.505Z,18.40
2018-08-10T07:21:25.680Z,18.30
2018-08-10T07:23:54.988Z,18.30
2018-08-10T07:26:24.384Z,18.30
2018-08-10T07:28:53.526Z,18.30
2018-08-10T07:31:22.718Z,18.30
2018-08-10T07:33:51.984Z,18.50
2018-08-10T07:36:21.175Z,18.60
2018-08-10T07:38:50.394Z,18.60
2018-08-10T07:41:19.788Z,18.70
2018-08-10T07:43:49.301Z,18.60
2018-08-10T07:46:18.508Z,18.70
2018-08-10T07:48:48.532Z,18.80
2018-08-10T07:51:19.792Z,19.10
2018-08-10T07:53:49.397Z,19.10
2018-08-10T07:56:18.648Z,19.20
2018-08-10T07:58:47.837Z,19.30
2018-08-10T08:01:16.967Z,19.20
2018-08-10T08:03:46.122Z,19.00
2018-08-10T08:06:15.390Z,19.10
2018-08-10T08:08:44.582Z,19.20
2018-08-10T08:11:13.848Z,19.30
2018-08-10T08:13:43.097Z,19.40
2018-08-10T08:16:12.421Z,19.40
2018-08-10T08:18:41.543Z,19.40
2018-08-10T08:21:12.936Z,19.30
2018-08-10T08:23:42.025Z,19.50
2018-08-10T08:26:11.322Z,19.60
2018-08-10T08:28:40.630Z,19.60
2018-08-10T08:31:10.042Z,19.70
2018-08-10T08:33:56.264Z,19.60
2018-08-10T08:36:25.636Z,19.50
2018-08-10T08:39:23.174Z,19.50
2018-08-10T08:41:52.315Z,19.60
2018-08-10T08:45:41.615Z,19.90
2018-08-10T08:48:10.869Z,20.00
2018-08-10T08:50:41.928Z,20.10
2018-08-10T08:53:11.398Z,20.00
2018-08-10T08:55:46.128Z,20.20
2018-08-10T08:58:15.384Z,20.10
2018-08-10T09:00:44.675Z,20.10
2018-08-10T09:03:31.731Z,20.00
2018-08-10T09:06:01.477Z,20.00
2018-08-10T09:08:30.672Z,19.90
2018-08-10T09:11:01.010Z,19.90
2018-08-10T09:14:54.416Z,20.10
2018-08-10T09:17:23.727Z,20.30
2018-08-10T09:19:53.045Z,20.10
2018-08-10T09:22:22.657Z,20.10
2018-08-10T09:24:52.157Z,20.20
2018-08-10T09:27:21.596Z,20.30
2018-08-10T09:29:51.486Z,20.30
2018-08-10T09:32:21.245Z,20.10
2018-08-10T09:34:51.130Z,20.10
2018-08-10T09:37:20.356Z,20.20
2018-08-10T09:39:50.125Z,20.00
2018-08-10T09:42:19.515Z,19.90
2018-08-10T09:44:48.771Z,19.90
2018-08-10T09:47:17.934Z,19.90
2018-08-10T09:49:48.386Z,19.70
2018-08-10T09:52:17.678Z,19.70
2018-08-10T09:55:29.416Z,19.60
2018-08-10T09:58:01.443Z,19.80
2018-08-10T10:00:35.987Z,19.90
2018-08-10T10:03:24.450Z,19.90
2018-08-10T10:05:56.337Z,19.70
2018-08-10T10:08:26.245Z,19.70
2018-08-10T10:10:55.797Z,19.80
2018-08-10T10:13:25.416Z,19.80
2018-08-10T10:15:54.777Z,20.00
2018-08-10T10:18:24.041Z,20.20
2018-08-10T10:20:53.536Z,20.50
2018-08-10T10:23:22.724Z,20.60
2018-08-10T10:25:52.246Z,20.80
2018-08-10T10:28:21.512Z,21.00
2018-08-10T10:30:50.705Z,21.20
2018-08-10T10:33:20.333Z,21.50
2018-08-10T10:35:49.445Z,21.50
2018-08-10T10:38:18.605Z,21.40
2018-08-10T10:40:47.814Z,21.10
2018-08-10T10:43:18.598Z,20.70
2018-08-10T10:45:47.715Z,20.60
2018-08-10T10:48:16.923Z,20.70
2018-08-10T10:50:46.097Z,20.50
2018-08-10T10:53:15.332Z,20.50
2018-08-10T10:55:44.464Z,20.30
2018-08-10T10:58:13.775Z,20.20
2018-08-10T11:00:43.956Z,20.20
2018-08-10T11:03:13.448Z,20.10
2018-08-10T11:05:43.454Z,20.40
2018-08-10T11:08:12.753Z,20.80
2018-08-10T11:10:42.028Z,21.10
2018-08-10T11:13:11.186Z,21.30
2018-08-10T11:15:40.402Z,21.40
2018-08-10T11:18:10.005Z,21.50
2018-08-10T11:20:39.347Z,21.70
2018-08-10T11:23:08.615Z,21.80
2018-08-10T11:25:38.034Z,21.80
2018-08-10T11:28:07.467Z,21.60
2018-08-10T11:30:36.664Z,21.40
2018-08-10T11:33:05.923Z,21.40
2018-08-10T11:35:35.133Z,21.60
2018-08-10T11:38:04.288Z,21.60
2018-08-10T11:40:33.423Z,21.70
2018-08-10T11:43:02.565Z,21.60
2018-08-10T11:45:31.802Z,21.50
2018-08-10T11:48:01.180Z,21.60
2018-08-10T11:50:30.360Z,21.50
2018-08-10T11:52:59.772Z,21.50
2018-08-10T11:55:28.933Z,21.60
2018-08-10T11:57:58.155Z,21.70
2018-08-10T12:00:27.433Z,21.80
2018-08-10T12:02:56.737Z,22.00
2018-08-10T12:05:25.939Z,22.10
2018-08-10T12:07:55.365Z,22.20
2018-08-10T12:10:24.545Z,22.20
2018-08-10T12:12:53.816Z,22.20
2018-08-10T12:15:23.072Z,22.40
2018-08-10T12:17:52.303Z,22.40
2018-08-10T12:20:21.662Z,22.30
2018-08-10T12:22:50.932Z,22.20
2018-08-10T12:25:20.242Z,22.20
2018-08-10T12:27:49.524Z,22.40
2018-08-10T12:30:20.157Z,22.50
2018-08-10T12:32:49.272Z,22.60
2018-08-10T12:35:18.638Z,22.60
2018-08-10T12:37:48.172Z,22.20
2018-08-10T12:40:18.827Z,22.00
2018-08-10T12:42:48.081Z,21.70
2018-08-10T12:45:17.341Z,21.60
2018-08-10T12:47:46.704Z,21.70
2018-08-10T12:50:16.478Z,21.90
2018-08-10T12:52:45.559Z,21.90
2018-08-10T12:55:21.208Z,21.90
2018-08-10T12:57:50.439Z,21.90
2018-08-10T13:00:20.303Z,22.10
2018-08-10T13:02:49.494Z,22.20
2018-08-10T13:05:18.696Z,22.30
2018-08-10T13:07:47.849Z,22.40
2018-08-10T13:10:17.218Z,22.40
2018-08-10T13:12:46.434Z,22.50
2018-08-10T13:15:15.660Z,22.60
2018-08-10T13:17:44.984Z,22.80
2018-08-10T13:20:15.116Z,23.10
2018-08-10T13:22:44.970Z,23.10
2018-08-10T13:25:14.110Z,23.20
2018-08-10T13:27:43.389Z,23.20
2018-08-10T13:30:13.506Z,22.90
2018-08-10T13:32:42.686Z,22.80
2018-08-10T13:35:11.846Z,23.00
2018-08-10T13:37:41.020Z,23.00
2018-08-10T13:40:10.185Z,23.20
2018-08-10T13:42:39.397Z,23.40
2018-08-10T13:45:12.204Z,23.30
2018-08-10T13:47:41.897Z,23.40
2018-08-10T13:50:14.002Z,23.30
2018-08-10T13:52:43.334Z,23.30
2018-08-10T13:55:17.361Z,23.30
2018-08-10T13:57:47.534Z,23.20
2018-08-10T14:00:23.021Z,23.10
2018-08-10T14:02:54.275Z,23.00
2018-08-10T14:05:24.264Z,22.80
2018-08-10T14:07:53.982Z,22.80
2018-08-10T14:10:23.444Z,22.70
2018-08-10T14:12:52.658Z,22.70
2018-08-10T14:15:21.809Z,22.70
2018-08-10T14:17:51.088Z,22.50
2018-08-10T14:20:20.319Z,22.40
2018-08-10T14:22:49.796Z,22.20
2018-08-10T14:25:19.229Z,21.90
2018-08-10T14:27:48.423Z,21.70
2018-08-10T14:30:17.659Z,21.60
2018-08-10T14:32:46.960Z,21.50
2018-08-10T14:35:16.301Z,21.20
2018-08-10T14:37:45.782Z,20.80
2018-08-10T14:40:15.146Z,20.40
2018-08-10T14:42:44.414Z,20.20
2018-08-10T14:45:15.259Z,20.30
2018-08-10T14:47:44.816Z,20.40
2018-08-10T14:50:15.387Z,20.60
2018-08-10T14:52:45.108Z,21.00
2018-08-10T14:55:15.988Z,21.40
2018-08-10T14:57:45.348Z,21.70
2018-08-10T15:00:19.227Z,21.90
2018-08-10T15:02:49.522Z,22.00
2018-08-10T15:05:19.051Z,21.80
2018-08-10T15:07:48.318Z,21.60
2018-08-10T15:10:18.233Z,21.50
2018-08-10T15:12:50.325Z,21.50
2018-08-10T15:15:20.212Z,21.40
2018-08-10T15:17:49.658Z,21.40
2018-08-10T15:20:20.552Z,21.60
2018-08-10T15:22:49.944Z,21.80
2018-08-10T15:25:19.302Z,22.10
2018-08-10T15:27:49.754Z,22.30
2018-08-10T15:30:20.162Z,22.40
2018-08-10T15:32:49.988Z,22.30
2018-08-10T15:35:19.725Z,22.00
2018-08-10T15:37:50.849Z,22.00
2018-08-10T15:40:20.751Z,22.10
2018-08-10T15:42:50.398Z,22.20
2018-08-10T15:45:20.069Z,21.80
2018-08-10T15:47:49.664Z,21.30
2018-08-10T15:50:19.615Z,20.90
2018-08-10T15:52:49.199Z,20.50
2018-08-10T15:55:18.913Z,20.30
2018-08-10T15:57:48.315Z,20.00
2018-08-10T16:00:20.947Z,20.00
2018-08-10T16:02:50.347Z,19.90
2018-08-10T16:05:19.677Z,20.00
2018-08-10T16:07:49.044Z,20.00
2018-08-10T16:10:18.191Z,20.00
2018-08-10T16:12:47.350Z,20.10
2018-08-10T16:15:17.848Z,20.20
2018-08-10T16:17:47.229Z,20.10
2018-08-10T16:20:19.672Z,20.20
2018-08-10T16:22:49.012Z,20.40
2018-08-10T16:25:18.248Z,20.50
2018-08-10T16:27:47.591Z,20.70
2018-08-10T16:30:17.575Z,20.80
2018-08-10T16:32:47.116Z,20.60
2018-08-10T16:35:16.738Z,20.60
2018-08-10T16:37:46.941Z,20.70
2018-08-10T16:40:17.848Z,20.70
2018-08-10T16:42:47.036Z,20.80
2018-08-10T16:45:16.324Z,20.90
2018-08-10T16:47:45.499Z,20.80
2018-08-10T16:50:18.984Z,20.80
2018-08-10T16:52:48.160Z,20.90
2018-08-10T16:55:20.369Z,20.80
2018-08-10T16:57:50.200Z,20.80
2018-08-10T17:00:21.012Z,20.90
2018-08-10T17:02:50.286Z,20.90
2018-08-10T17:05:19.551Z,21.00
2018-08-10T17:07:48.784Z,21.00
2018-08-10T17:10:18.008Z,20.80
2018-08-10T17:12:47.273Z,20.80
2018-08-10T17:15:18.335Z,20.60
2018-08-10T17:17:48.366Z,20.50
2018-08-10T17:20:18.259Z,20.40
2018-08-10T17:22:47.399Z,20.30
2018-08-10T17:25:19.121Z,20.20
2018-08-10T17:27:48.396Z,20.30
2018-08-10T17:30:18.925Z,20.30
2018-08-10T17:32:48.127Z,20.20
2018-08-10T17:35:17.880Z,20.10
2018-08-10T17:37:47.564Z,20.10
2018-08-10T17:40:16.746Z,20.00
2018-08-10T17:42:46.062Z,20.00
2018-08-10T17:45:16.989Z,19.90
2018-08-10T17:47:46.287Z,19.90
2018-08-10T17:50:19.370Z,20.00
2018-08-10T17:52:50.841Z,20.00
2018-08-10T17:55:22.015Z,20.10
2018-08-10T17:57:51.548Z,20.10
2018-08-10T18:00:25.165Z,20.10
2018-08-10T18:02:55.380Z,20.10
2018-08-10T18:05:24.571Z,19.90
2018-08-10T18:07:53.823Z,19.90
2018-08-10T18:10:23.496Z,19.90
2018-08-10T18:12:52.953Z,19.90
2018-08-10T18:15:22.374Z,20.00
2018-08-10T18:17:51.648Z,19.90
2018-08-10T18:20:22.377Z,19.90
2018-08-10T18:22:52.628Z,19.90
2018-08-10T18:25:23.096Z,19.80
2018-08-10T18:27:52.454Z,19.70
2018-08-10T18:30:24.995Z,19.60
2018-08-10T18:32:54.561Z,19.60
2018-08-10T18:35:23.932Z,19.60
2018-08-10T18:37:54.021Z,19.40
2018-08-10T18:40:24.418Z,19.40
2018-08-10T18:42:53.801Z,19.40
2018-08-10T18:45:23.255Z,19.30
2018-08-10T18:47:53.949Z,19.20
2018-08-10T18:50:23.255Z,19.10
2018-08-10T18:52:52.760Z,19.10
2018-08-10T18:55:23.812Z,19.00
2018-08-10T18:57:56.541Z,18.90
2018-08-10T19:00:27.118Z,18.80
2018-08-10T19:02:56.799Z,18.80
2018-08-10T19:05:28.476Z,18.70
2018-08-10T19:07:58.009Z,18.70
2018-08-10T19:10:29.390Z,18.60
2018-08-10T19:12:58.771Z,18.50
2018-08-10T19:15:28.012Z,18.40
2018-08-10T19:17:57.492Z,18.40
2018-08-10T19:20:27.015Z,18.30
2018-08-10T19:22:56.466Z,18.40
2018-08-10T19:25:26.098Z,18.40
2018-08-10T19:27:56.274Z,18.30
2018-08-10T19:30:26.360Z,18.30
2018-08-10T19:32:56.476Z,18.20
2018-08-10T19:35:26.201Z,18.20
2018-08-10T19:37:55.714Z,18.10
2018-08-10T19:40:25.183Z,18.10
2018-08-10T19:42:54.568Z,18.00
2018-08-10T19:45:23.904Z,18.00
2018-08-10T19:47:53.526Z,17.90
2018-08-10T19:50:23.959Z,17.80
2018-08-10T19:52:54.561Z,17.80
2018-08-10T19:55:23.782Z,17.80
2018-08-10T19:57:54.070Z,17.70
2018-08-10T20:00:23.988Z,17.60
2018-08-10T20:02:53.392Z,17.60
2018-08-10T20:05:22.712Z,17.60
2018-08-10T20:07:52.386Z,17.50
2018-08-10T20:10:21.659Z,17.50
2018-08-10T20:12:51.069Z,17.40
2018-08-10T20:15:20.447Z,17.30
2018-08-10T20:17:49.579Z,17.30
2018-08-10T20:20:19.645Z,17.20
2018-08-10T20:22:48.930Z,17.20
2018-08-10T20:25:18.221Z,17.10
2018-08-10T20:27:47.622Z,17.10
2018-08-10T20:30:18.709Z,17.10
2018-08-10T20:32:48.507Z,17.10
2018-08-10T20:35:19.653Z,17.10
2018-08-10T20:37:49.148Z,17.10
2018-08-10T20:40:20.453Z,17.00
2018-08-10T20:42:49.848Z,17.00
2018-08-10T20:45:20.200Z,16.90
2018-08-10T20:47:49.504Z,16.80
2018-08-10T20:50:23.937Z,16.70
2018-08-10T20:52:53.421Z,16.70
2018-08-10T20:55:22.828Z,16.70
2018-08-10T20:57:52.400Z,16.60
2018-08-10T21:00:21.867Z,16.70
2018-08-10T21:02:51.025Z,16.60
2018-08-10T21:05:20.579Z,16.70
2018-08-10T21:07:49.738Z,16.70
2018-08-10T21:10:18.917Z,16.80
2018-08-10T21:12:48.519Z,16.70
2018-08-10T21:15:17.894Z,16.70
2018-08-10T21:17:47.926Z,16.60
2018-08-10T21:20:19.146Z,16.60
2018-08-10T21:22:48.752Z,16.50
2018-08-10T21:25:17.941Z,16.60
2018-08-10T21:27:47.300Z,16.50
2018-08-10T21:30:18.876Z,16.50
2018-08-10T21:32:48.860Z,16.50
2018-08-10T21:35:18.178Z,16.40
2018-08-10T21:37:47.512Z,16.40
2018-08-10T21:40:16.800Z,16.30
2018-08-10T21:42:46.007Z,16.20
2018-08-10T21:45:15.337Z,16.20
2018-08-10T21:47:44.530Z,16.20
2018-08-10T21:50:14.779Z,16.20
2018-08-10T21:52:44.789Z,16.10
2018-08-10T21:55:13.957Z,16.00
2018-08-10T21:57:43.124Z,16.00
2018-08-10T22:00:53.331Z,16.00
2018-08-10T22:03:23.852Z,16.00
2018-08-10T22:05:53.011Z,16.00
2018-08-10T22:08:23.704Z,15.90
2018-08-10T22:10:53.028Z,15.90
2018-08-10T22:13:27.566Z,15.80
2018-08-10T22:16:02.081Z,15.80
2018-08-10T22:18:36.561Z,15.80
2018-08-10T22:21:05.795Z,15.80
2018-08-10T22:23:34.913Z,15.70
2018-08-10T22:26:04.095Z,15.70
2018-08-10T22:28:33.307Z,15.70
2018-08-10T22:31:02.483Z,15.70
2018-08-10T22:33:31.649Z,15.70
2018-08-10T22:36:00.857Z,15.70
2018-08-10T22:38:30.050Z,15.80
2018-08-10T22:40:59.337Z,15.70
2018-08-10T22:43:28.484Z,15.70
2018-08-10T22:45:57.657Z,15.70
2018-08-10T22:48:26.870Z,15.70
2018-08-10T22:50:56.073Z,15.70
2018-08-10T22:53:25.287Z,15.70
2018-08-10T22:55:54.464Z,15.60
2018-08-10T22:58:23.631Z,15.50
2018-08-10T23:00:52.825Z,15.50
2018-08-10T23:03:21.984Z,15.50
2018-08-10T23:05:51.126Z,15.40
2018-08-10T23:08:20.316Z,15.40
2018-08-10T23:10:49.484Z,15.40
2018-08-10T23:13:18.637Z,15.40
2018-08-10T23:15:47.781Z,15.40
2018-08-10T23:18:16.962Z,15.40
2018-08-10T23:20:46.100Z,15.30
2018-08-10T23:23:15.223Z,15.30
2018-08-10T23:25:44.356Z,15.30
2018-08-10T23:28:13.480Z,15.20
2018-08-10T23:30:42.686Z,15.10
2018-08-10T23:33:11.825Z,15.10
2018-08-10T23:35:40.972Z,15.10
2018-08-10T23:38:10.155Z,15.10
2018-08-10T23:40:39.316Z,15.00
2018-08-10T23:43:08.684Z,15.00
2018-08-10T23:45:37.887Z,15.00
2018-08-10T23:48:07.115Z,15.00
2018-08-10T23:50:36.276Z,15.00
2018-08-10T23:53:05.716Z,15.00
2018-08-10T23:55:34.854Z,15.00
2018-08-10T23:58:04.029Z,15.00
